Time;durP1;ratioP1;P1;durP2;ratioP2;P2;SDS_P1;SDS_P2;PMS_P1;PMS_P2;Temp;Humidity;BMP_temperature;BMP_pressure;BME280_temperature;BME280_humidity;BME280_pressure;Samples;Min_cycle;Max_cycle;Signal;HPM_P1;HPM_P2
2021/07/01 00:01:57;;;;;;;21.97;17.37;;;17.40;99.90;;;;;;5095073;28;20367;-88
2021/07/01 00:04:23;;;;;;;25.10;17.63;;;17.30;99.90;;;;;;5094400;28;20473;-87
2021/07/01 00:06:49;;;;;;;22.83;17.80;;;17.30;99.90;;;;;;5093920;28;20404;-90
2021/07/01 00:09:15;;;;;;;26.35;19.40;;;17.30;99.90;;;;;;5095943;28;20375;-85
2021/07/01 00:11:52;;;;;;;26.17;19.80;;;17.30;99.90;;;;;;5110910;28;20390;-88
2021/07/01 00:14:19;;;;;;;27.38;20.48;;;17.30;99.90;;;;;;5098178;28;20374;-90
2021/07/01 00:16:50;;;;;;;30.00;21.30;;;17.20;99.90;;;;;;5094482;28;20900;-91
2021/07/01 00:19:16;;;;;;;28.15;20.27;;;17.20;99.90;;;;;;5104844;28;20904;-91
2021/07/01 00:21:42;;;;;;;31.97;21.90;;;17.20;99.90;;;;;;5086737;28;20379;-89
2021/07/01 00:24:07;;;;;;;29.77;20.63;;;17.20;99.90;;;;;;5088263;28;20603;-88
2021/07/01 00:26:33;;;;;;;34.55;22.65;;;17.20;99.90;;;;;;5085761;28;20491;-89
2021/07/01 00:28:59;;;;;;;31.83;22.85;;;17.20;99.90;;;;;;5087708;28;20737;-91
2021/07/01 00:31:24;;;;;;;32.37;22.63;;;17.30;99.90;;;;;;5087099;28;20417;-89
2021/07/01 00:33:53;;;;;;;31.10;21.77;;;17.30;99.90;;;;;;5103381;28;20388;-91
2021/07/01 00:36:19;;;;;;;32.05;22.45;;;17.30;99.90;;;;;;5087006;28;20920;-90
2021/07/01 00:38:44;;;;;;;32.60;22.58;;;17.20;99.90;;;;;;5095461;28;20414;-90
2021/07/01 00:41:10;;;;;;;34.03;23.83;;;17.30;99.90;;;;;;5114632;28;20899;-89
2021/07/01 00:43:36;;;;;;;31.67;22.13;;;17.30;99.90;;;;;;5096462;28;20913;-91
2021/07/01 00:46:04;;;;;;;36.03;23.88;;;17.40;99.90;;;;;;5097313;28;20888;-86
2021/07/01 00:48:30;;;;;;;34.67;23.10;;;17.40;99.90;;;;;;5097288;28;20724;-90
2021/07/01 00:50:55;;;;;;;38.63;24.27;;;17.30;99.90;;;;;;5096231;28;20390;-89
2021/07/01 00:53:21;;;;;;;36.97;23.87;;;17.30;99.90;;;;;;5097111;28;20402;-90
2021/07/01 00:55:48;;;;;;;38.53;23.73;;;17.30;99.90;;;;;;5097207;28;20370;-90
2021/07/01 00:58:16;;;;;;;32.50;22.60;;;17.30;99.90;;;;;;5096763;28;20871;-89
2021/07/01 01:00:50;;;;;;;30.80;20.77;;;17.40;99.90;;;;;;5096375;28;20417;-88
2021/07/01 01:03:16;;;;;;;30.70;20.80;;;17.40;99.90;;;;;;5096918;28;20406;-89
2021/07/01 01:05:48;;;;;;;29.33;20.47;;;17.50;99.90;;;;;;5097062;28;20429;-91
2021/07/01 01:08:23;;;;;;;26.08;17.98;;;17.50;99.90;;;;;;5096828;28;20382;-89
2021/07/01 01:10:48;;;;;;;25.83;17.52;;;17.60;99.90;;;;;;5097154;28;20379;-89
2021/07/01 01:13:23;;;;;;;24.10;17.13;;;17.40;99.90;;;;;;5096813;28;20382;-89
2021/07/01 01:15:58;;;;;;;21.60;15.80;;;17.30;99.90;;;;;;5096588;28;20379;-89
2021/07/01 01:18:25;;;;;;;20.52;14.85;;;17.30;99.90;;;;;;5096255;28;20381;-89
2021/07/01 01:20:52;;;;;;;20.42;15.48;;;17.40;99.90;;;;;;5113882;28;20891;-90
2021/07/01 01:23:19;;;;;;;23.73;16.55;;;17.30;99.90;;;;;;5096227;28;20862;-88
2021/07/01 01:25:48;;;;;;;19.92;15.88;;;17.30;99.90;;;;;;5096435;28;20370;-89
2021/07/01 01:28:14;;;;;;;24.80;16.83;;;17.20;99.90;;;;;;5096117;28;20888;-87
2021/07/01 01:30:40;;;;;;;22.60;15.95;;;17.10;99.90;;;;;;5096975;28;20865;-87
2021/07/01 01:33:07;;;;;;;21.50;15.85;;;17.10;99.90;;;;;;5096084;28;20381;-89
2021/07/01 01:35:34;;;;;;;19.60;15.27;;;17.10;99.90;;;;;;5095902;28;20370;-89
2021/07/01 01:38:00;;;;;;;19.80;14.57;;;17.10;99.90;;;;;;5095982;28;20804;-89
2021/07/01 01:40:26;;;;;;;19.05;14.57;;;17.10;99.90;;;;;;5096107;28;20885;-91
2021/07/01 01:42:55;;;;;;;17.00;14.00;;;17.00;99.90;;;;;;5096454;28;20458;-88
2021/07/01 01:45:21;;;;;;;18.08;13.98;;;17.10;99.90;;;;;;5096483;28;20900;-88
2021/07/01 01:47:48;;;;;;;17.80;14.13;;;17.00;99.90;;;;;;5096262;28;20387;-90
2021/07/01 01:50:22;;;;;;;17.23;13.68;;;17.10;99.90;;;;;;5114048;28;20390;-89
2021/07/01 01:52:48;;;;;;;16.80;13.63;;;17.00;99.90;;;;;;5096066;28;20431;-86
2021/07/01 01:55:15;;;;;;;15.50;12.48;;;17.00;99.90;;;;;;5114376;28;20774;-88
2021/07/01 01:57:45;;;;;;;16.67;12.85;;;17.00;99.90;;;;;;5096107;28;20413;-90
2021/07/01 02:00:13;;;;;;;14.73;11.70;;;16.90;99.90;;;;;;5095439;28;20395;-89
2021/07/01 02:02:42;;;;;;;14.40;11.45;;;16.90;99.90;;;;;;5095783;28;20422;-89
2021/07/01 02:05:09;;;;;;;15.10;10.93;;;16.90;99.90;;;;;;5095863;28;20398;-86
2021/07/01 02:07:36;;;;;;;13.77;11.30;;;16.90;99.90;;;;;;5113889;28;20410;-90
2021/07/01 02:10:11;;;;;;;12.70;10.38;;;16.90;99.90;;;;;;5095834;28;20883;-88
2021/07/01 02:12:36;;;;;;;13.60;9.77;;;16.90;99.90;;;;;;5095839;28;20383;-88
2021/07/01 02:15:24;;;;;;;14.30;10.07;;;16.80;99.90;;;;;;5113823;28;20359;-87
2021/07/01 02:17:50;;;;;;;12.48;9.68;;;16.90;99.90;;;;;;5094623;28;20408;-87
2021/07/01 02:20:21;;;;;;;11.57;9.57;;;16.80;99.90;;;;;;5095956;28;20419;-89
2021/07/01 02:22:48;;;;;;;10.63;8.65;;;16.90;99.90;;;;;;5113476;28;20383;-91
2021/07/01 02:25:14;;;;;;;10.98;9.00;;;16.80;99.90;;;;;;5095696;28;20416;-91
2021/07/01 02:27:40;;;;;;;10.90;9.10;;;16.80;99.90;;;;;;5095252;28;20371;-87
2021/07/01 02:30:08;;;;;;;8.02;7.13;;;16.80;99.90;;;;;;5113263;28;20370;-88
2021/07/01 02:32:34;;;;;;;9.65;7.68;;;16.80;99.90;;;;;;5113472;28;20367;-87
2021/07/01 02:35:00;;;;;;;9.85;8.27;;;16.80;99.90;;;;;;5095352;28;20410;-88
2021/07/01 02:37:26;;;;;;;9.47;7.50;;;16.80;99.90;;;;;;5095560;28;20726;-87
2021/07/01 02:39:52;;;;;;;9.43;8.37;;;16.80;99.90;;;;;;5113824;28;20394;-90
2021/07/01 02:42:17;;;;;;;10.27;8.05;;;16.80;99.90;;;;;;5095606;28;20428;-88
2021/07/01 02:44:43;;;;;;;10.73;8.00;;;16.80;99.90;;;;;;5095636;28;20807;-92
2021/07/01 02:47:12;;;;;;;8.68;7.35;;;16.80;99.90;;;;;;5095673;28;20779;-89
2021/07/01 02:49:37;;;;;;;7.13;6.20;;;16.80;99.90;;;;;;5095521;28;20398;-90
2021/07/01 02:52:03;;;;;;;7.97;6.47;;;16.80;99.90;;;;;;5095919;28;20375;-87
2021/07/01 02:54:29;;;;;;;7.75;6.63;;;16.70;99.90;;;;;;5096043;28;20412;-86
2021/07/01 02:56:55;;;;;;;5.97;5.38;;;16.70;99.90;;;;;;5095327;28;20371;-87
2021/07/01 02:59:20;;;;;;;6.67;5.67;;;16.70;99.90;;;;;;5095189;28;20755;-88
2021/07/01 03:01:47;;;;;;;5.80;5.13;;;16.60;99.90;;;;;;5096197;28;20385;-91
2021/07/01 03:04:13;;;;;;;5.65;4.88;;;16.60;99.90;;;;;;5095672;28;20424;-90
2021/07/01 03:06:39;;;;;;;5.82;5.22;;;16.60;99.90;;;;;;5095838;28;20379;-89
2021/07/01 03:09:06;;;;;;;5.57;5.03;;;16.50;99.90;;;;;;5095201;28;20386;-89
2021/07/01 03:11:32;;;;;;;7.77;5.50;;;16.40;99.90;;;;;;5095491;28;20406;-91
2021/07/01 03:13:57;;;;;;;5.80;4.88;;;16.30;99.90;;;;;;5095167;28;20460;-88
2021/07/01 03:16:23;;;;;;;6.68;5.05;;;16.30;99.90;;;;;;5095042;28;20378;-87
2021/07/01 03:18:52;;;;;;;5.72;4.95;;;16.30;99.90;;;;;;5094966;28;20391;-89
2021/07/01 03:21:18;;;;;;;7.38;5.07;;;16.20;99.90;;;;;;5094792;28;20425;-89
2021/07/01 03:23:47;;;;;;;5.10;4.60;;;16.10;99.90;;;;;;5094565;28;20402;-90
2021/07/01 03:26:14;;;;;;;5.50;4.90;;;16.00;99.90;;;;;;5094805;28;20845;-90
2021/07/01 03:28:40;;;;;;;5.28;4.78;;;16.00;99.90;;;;;;5093927;28;20387;-88
2021/07/01 03:31:06;;;;;;;5.32;4.60;;;16.10;99.90;;;;;;5094392;28;20375;-86
2021/07/01 03:33:35;;;;;;;5.93;4.53;;;16.00;99.90;;;;;;5112633;28;20382;-88
2021/07/01 03:36:02;;;;;;;5.28;4.78;;;16.00;99.90;;;;;;5094222;28;20386;-88
2021/07/01 03:38:29;;;;;;;4.90;4.40;;;15.90;99.90;;;;;;5093740;28;20405;-90
2021/07/01 03:40:55;;;;;;;5.05;4.55;;;15.90;99.90;;;;;;5094079;28;20391;-90
2021/07/01 03:43:21;;;;;;;5.07;4.57;;;16.00;99.90;;;;;;5093529;28;20411;-91
2021/07/01 03:45:46;;;;;;;5.25;4.30;;;15.90;99.90;;;;;;5093982;28;20402;-89
2021/07/01 03:48:12;;;;;;;4.73;4.30;;;15.90;99.90;;;;;;5094418;28;20463;-87
2021/07/01 03:50:39;;;;;;;4.18;3.83;;;15.90;99.90;;;;;;5093979;28;20432;-91
2021/07/01 03:53:05;;;;;;;4.33;3.93;;;16.00;99.90;;;;;;5094619;28;20797;-91
2021/07/01 03:55:31;;;;;;;5.33;4.00;;;16.00;99.90;;;;;;5094176;28;20809;-91
2021/07/01 03:57:56;;;;;;;4.20;3.80;;;16.00;99.90;;;;;;5093950;28;20409;-88
2021/07/01 04:00:22;;;;;;;4.50;3.90;;;16.00;99.90;;;;;;5093828;28;20390;-89
2021/07/01 04:02:48;;;;;;;4.22;3.78;;;16.00;99.90;;;;;;5094268;28;20432;-88
2021/07/01 04:05:17;;;;;;;4.27;3.70;;;16.00;99.90;;;;;;5094327;28;20379;-91
2021/07/01 04:07:43;;;;;;;4.47;3.90;;;16.00;99.90;;;;;;5093671;28;20371;-89
2021/07/01 04:10:12;;;;;;;5.03;3.20;;;15.90;99.90;;;;;;5112242;28;20422;-88
2021/07/01 04:12:38;;;;;;;3.60;3.20;;;16.00;99.90;;;;;;5095749;28;20375;-86
2021/07/01 04:15:05;;;;;;;3.40;3.10;;;15.90;99.90;;;;;;5112870;28;20378;-90
2021/07/01 04:17:35;;;;;;;3.60;3.30;;;16.00;99.90;;;;;;5095244;28;20486;-89
2021/07/01 04:20:00;;;;;;;3.95;2.97;;;16.00;99.90;;;;;;5095519;28;20466;-88
2021/07/01 04:22:26;;;;;;;4.53;3.13;;;16.00;99.90;;;;;;5094694;28;20473;-90
2021/07/01 04:24:52;;;;;;;3.25;2.95;;;15.90;99.90;;;;;;5094419;28;20474;-90
2021/07/01 04:27:18;;;;;;;4.15;3.35;;;15.80;99.90;;;;;;5094853;28;20367;-91
2021/07/01 04:29:44;;;;;;;2.97;2.75;;;15.80;99.90;;;;;;5094354;28;20477;-90
2021/07/01 04:32:09;;;;;;;4.03;3.23;;;15.80;99.90;;;;;;5112477;28;20374;-88
2021/07/01 04:34:36;;;;;;;3.78;3.10;;;15.70;99.90;;;;;;5094026;28;20378;-91
2021/07/01 04:37:03;;;;;;;4.47;3.10;;;15.80;99.90;;;;;;5094426;28;20462;-89
2021/07/01 04:39:29;;;;;;;4.90;3.22;;;15.70;99.90;;;;;;5093591;28;20369;-90
2021/07/01 04:41:54;;;;;;;2.75;2.45;;;15.70;99.90;;;;;;5094607;28;20378;-91
2021/07/01 04:44:20;;;;;;;2.53;2.30;;;15.80;99.90;;;;;;5094099;28;20424;-87
2021/07/01 04:46:46;;;;;;;2.47;2.28;;;15.90;99.90;;;;;;5093580;28;20386;-89
2021/07/01 04:49:12;;;;;;;3.10;2.10;;;15.70;99.90;;;;;;5093339;28;20934;-89
2021/07/01 04:51:39;;;;;;;2.47;2.17;;;15.80;99.90;;;;;;5093113;28;20474;-90
2021/07/01 04:54:05;;;;;;;2.20;2.00;;;15.70;99.90;;;;;;5093200;28;20378;-91
2021/07/01 04:56:43;;;;;;;2.67;2.10;;;15.70;99.90;;;;;;5097318;28;20505;-90
2021/07/01 04:59:16;;;;;;;2.25;2.05;;;15.70;99.90;;;;;;5097121;28;20936;-87
2021/07/01 05:01:42;;;;;;;2.55;2.13;;;15.70;99.90;;;;;;5097013;28;20818;-90
2021/07/01 05:04:15;;;;;;;3.10;2.08;;;15.70;99.90;;;;;;5097219;28;20926;-91
2021/07/01 05:06:44;;;;;;;3.13;2.05;;;15.70;99.90;;;;;;5096616;28;20421;-89
2021/07/01 05:09:10;;;;;;;2.50;2.30;;;15.80;99.90;;;;;;5097361;28;20485;-90
2021/07/01 05:11:36;;;;;;;2.80;2.13;;;15.70;99.90;;;;;;5096585;28;20410;-88
2021/07/01 05:14:05;;;;;;;4.53;2.28;;;15.70;99.90;;;;;;5097488;28;20439;-90
2021/07/01 05:16:33;;;;;;;2.35;2.15;;;15.60;99.90;;;;;;5097330;28;20407;-91
2021/07/01 05:19:02;;;;;;;2.75;2.47;;;15.70;99.90;;;;;;5096766;28;20371;-90
2021/07/01 05:21:28;;;;;;;2.85;2.65;;;15.70;99.90;;;;;;5097021;28;20367;-89
2021/07/01 05:23:54;;;;;;;2.65;2.45;;;15.70;99.90;;;;;;5097119;28;20413;-91
2021/07/01 05:26:20;;;;;;;2.53;2.33;;;15.70;99.90;;;;;;5097299;28;20403;-87
2021/07/01 05:28:52;;;;;;;3.00;2.80;;;15.70;99.90;;;;;;5096321;28;21006;-89
2021/07/01 05:31:20;;;;;;;2.80;2.60;;;15.70;99.90;;;;;;5097306;28;20375;-91
2021/07/01 05:33:46;;;;;;;3.10;2.55;;;15.70;99.90;;;;;;5097447;28;20375;-91
2021/07/01 05:36:12;;;;;;;2.70;2.40;;;15.70;99.90;;;;;;5097744;28;20393;-90
2021/07/01 05:38:38;;;;;;;3.00;2.78;;;15.70;99.90;;;;;;5097127;28;20374;-89
2021/07/01 05:41:03;;;;;;;2.92;2.65;;;15.70;99.90;;;;;;5097578;28;20382;-89
2021/07/01 05:43:35;;;;;;;2.80;2.50;;;15.70;99.90;;;;;;5116155;28;20872;-91
2021/07/01 05:46:02;;;;;;;3.63;2.72;;;15.70;99.90;;;;;;5098380;28;20379;-91
2021/07/01 05:48:28;;;;;;;2.72;2.53;;;15.80;99.90;;;;;;5097368;28;20376;-89
2021/07/01 05:51:03;;;;;;;2.78;2.47;;;15.80;99.90;;;;;;5098001;28;20406;-91
2021/07/01 05:53:32;;;;;;;2.90;2.70;;;15.70;99.90;;;;;;5097207;28;20415;-92
2021/07/01 05:55:59;;;;;;;2.65;2.45;;;15.90;99.90;;;;;;5097071;28;20440;-89
2021/07/01 05:58:25;;;;;;;3.00;2.40;;;16.00;99.90;;;;;;5095871;28;20367;-88
2021/07/01 06:00:50;;;;;;;3.00;2.70;;;15.80;99.90;;;;;;5094989;28;20945;-89
2021/07/01 06:03:16;;;;;;;3.30;3.00;;;15.90;99.90;;;;;;5096052;28;20884;-91
2021/07/01 06:05:55;;;;;;;3.13;2.83;;;15.80;99.90;;;;;;5096137;28;20367;-91
2021/07/01 06:08:23;;;;;;;3.88;2.65;;;15.80;99.90;;;;;;5095840;28;20997;-88
2021/07/01 06:10:50;;;;;;;2.90;2.60;;;16.00;99.90;;;;;;5095547;28;20395;-85
2021/07/01 06:13:23;;;;;;;3.45;2.90;;;16.00;99.90;;;;;;5096119;28;20367;-90
2021/07/01 06:15:53;;;;;;;3.60;3.10;;;16.00;99.90;;;;;;5096488;28;20382;-90
2021/07/01 06:18:22;;;;;;;4.85;3.38;;;16.00;99.90;;;;;;5096107;28;20465;-86
2021/07/01 06:20:50;;;;;;;6.72;3.00;;;15.90;99.90;;;;;;5095895;28;20378;-89
2021/07/01 06:23:19;;;;;;;3.95;3.05;;;16.00;99.90;;;;;;5114039;28;20371;-90
2021/07/01 06:25:54;;;;;;;3.20;2.90;;;15.80;99.90;;;;;;5114153;28;20397;-88
2021/07/01 06:28:21;;;;;;;3.95;3.05;;;15.80;99.90;;;;;;5095890;28;20507;-87
2021/07/01 06:30:50;;;;;;;4.22;3.05;;;15.70;99.90;;;;;;5113555;28;20390;-86
2021/07/01 06:33:20;;;;;;;3.95;2.80;;;15.80;99.90;;;;;;5095193;28;20375;-86
2021/07/01 06:35:51;;;;;;;3.40;2.97;;;15.90;99.90;;;;;;5095254;28;20405;-84
2021/07/01 06:38:23;;;;;;;4.57;2.65;;;15.80;99.90;;;;;;5095912;28;20379;-88
2021/07/01 06:40:52;;;;;;;3.60;2.92;;;15.80;99.90;;;;;;5095696;28;20374;-89
2021/07/01 06:43:24;;;;;;;2.90;2.60;;;15.90;99.90;;;;;;5094963;28;20375;-89
2021/07/01 06:45:54;;;;;;;2.80;2.53;;;15.90;99.90;;;;;;5095008;28;20390;-89
2021/07/01 06:48:21;;;;;;;4.47;2.40;;;16.00;99.90;;;;;;5095122;28;20378;-89
2021/07/01 06:50:50;;;;;;;3.53;2.50;;;16.00;99.90;;;;;;5094747;28;20410;-89
2021/07/01 06:53:19;;;;;;;4.28;2.58;;;16.00;99.90;;;;;;5095173;28;20436;-89
2021/07/01 06:55:45;;;;;;;3.38;3.08;;;16.00;99.90;;;;;;5113155;28;20383;-87
2021/07/01 06:58:14;;;;;;;2.60;2.25;;;16.10;99.90;;;;;;5095178;28;20379;-91
2021/07/01 07:00:43;;;;;;;2.75;2.42;;;16.00;99.90;;;;;;5095421;28;20374;-89
2021/07/01 07:03:19;;;;;;;2.70;2.40;;;16.00;99.90;;;;;;5112379;28;20450;-87
2021/07/01 07:05:47;;;;;;;3.47;2.38;;;15.90;99.90;;;;;;5094944;28;20375;-88
2021/07/01 07:08:16;;;;;;;2.42;2.15;;;15.90;99.90;;;;;;5113123;28;20465;-90
2021/07/01 07:10:46;;;;;;;2.70;2.30;;;15.90;99.90;;;;;;5096073;28;20398;-89
2021/07/01 07:13:15;;;;;;;3.00;2.25;;;16.00;99.90;;;;;;5094295;28;20371;-88
2021/07/01 07:15:43;;;;;;;3.40;2.28;;;16.00;99.90;;;;;;5082499;28;20391;-89
2021/07/01 07:18:12;;;;;;;2.20;2.00;;;16.30;99.90;;;;;;5094615;28;20375;-87
2021/07/01 07:20:53;;;;;;;2.38;2.17;;;16.30;99.90;;;;;;5080151;28;20432;-88
2021/07/01 07:23:25;;;;;;;3.75;2.65;;;16.30;99.90;;;;;;5076060;28;20378;-89
2021/07/01 07:25:59;;;;;;;4.15;2.65;;;16.30;99.90;;;;;;5075637;28;20380;-88
2021/07/01 07:28:26;;;;;;;3.00;2.55;;;16.30;99.90;;;;;;5074242;28;20380;-88
2021/07/01 07:30:54;;;;;;;2.90;2.65;;;16.50;99.90;;;;;;5073659;28;20396;-87
2021/07/01 07:33:26;;;;;;;4.78;2.28;;;16.50;99.90;;;;;;5111332;28;20358;-89
2021/07/01 07:35:53;;;;;;;3.33;2.00;;;16.50;99.90;;;;;;5075392;28;21003;-89
2021/07/01 07:38:24;;;;;;;2.25;2.00;;;16.50;99.90;;;;;;5073543;28;20511;-88
2021/07/01 07:40:53;;;;;;;3.47;1.85;;;16.40;99.90;;;;;;5074218;28;20870;-86
2021/07/01 07:43:20;;;;;;;3.00;1.83;;;16.40;99.90;;;;;;5092230;28;20379;-87
2021/07/01 07:45:48;;;;;;;1.63;1.50;;;16.10;99.90;;;;;;5092512;28;20391;-90
2021/07/01 07:48:17;;;;;;;2.90;1.60;;;16.20;99.90;;;;;;5078808;28;20378;-88
2021/07/01 07:50:51;;;;;;;1.73;1.63;;;16.30;99.90;;;;;;5111577;28;20464;-87
2021/07/01 07:53:25;;;;;;;2.47;1.70;;;16.30;99.90;;;;;;5093152;28;20379;-88
2021/07/01 07:56:10;;;;;;;3.42;1.90;;;16.40;99.90;;;;;;5074923;28;20893;-89
2021/07/01 07:58:43;;;;;;;2.33;1.88;;;16.30;99.90;;;;;;5073928;28;20894;-89
2021/07/01 08:01:12;;;;;;;2.35;1.55;;;16.30;99.90;;;;;;5079875;28;20388;-88
2021/07/01 08:03:40;;;;;;;1.60;1.50;;;16.30;99.90;;;;;;5073020;28;20522;-91
2021/07/01 08:06:10;;;;;;;1.50;1.40;;;16.20;99.90;;;;;;5087061;28;20453;-88
2021/07/01 08:08:42;;;;;;;1.75;1.42;;;16.20;99.90;;;;;;5088648;28;20395;-88
2021/07/01 08:11:10;;;;;;;1.90;1.30;;;16.10;99.90;;;;;;5103495;28;20383;-87
2021/07/01 08:13:38;;;;;;;1.40;1.30;;;16.10;99.90;;;;;;5079331;28;20848;-92
2021/07/01 08:16:08;;;;;;;1.50;1.40;;;16.10;99.90;;;;;;5093004;28;20505;-88
2021/07/01 08:18:41;;;;;;;1.73;1.30;;;16.20;99.90;;;;;;5085151;28;20384;-87
2021/07/01 08:21:09;;;;;;;1.45;1.30;;;16.10;99.90;;;;;;5091091;28;20889;-85
2021/07/01 08:23:35;;;;;;;1.30;1.20;;;16.20;99.90;;;;;;5090702;28;20398;-88
2021/07/01 08:26:06;;;;;;;2.20;1.40;;;16.00;99.90;;;;;;5074704;28;20386;-87
2021/07/01 08:28:35;;;;;;;2.08;1.40;;;16.00;99.90;;;;;;5098831;28;20883;-88
2021/07/01 08:31:12;;;;;;;1.50;1.40;;;15.90;99.90;;;;;;5081026;28;20468;-87
2021/07/01 08:33:42;;;;;;;1.67;1.55;;;15.90;99.90;;;;;;5091042;28;20386;-89
2021/07/01 08:36:20;;;;;;;2.20;1.42;;;15.90;99.90;;;;;;5097849;28;20929;-89
2021/07/01 08:38:49;;;;;;;1.73;1.63;;;15.80;99.90;;;;;;5103643;28;20391;-91
2021/07/01 08:41:22;;;;;;;2.70;1.50;;;15.80;99.90;;;;;;5087504;28;20390;-87
2021/07/01 08:43:50;;;;;;;3.10;1.83;;;15.90;99.90;;;;;;5092361;28;20884;-87
2021/07/01 08:46:39;;;;;;;2.95;2.08;;;16.00;99.90;;;;;;5104505;28;20841;-90
2021/07/01 08:49:08;;;;;;;4.18;2.47;;;16.00;99.90;;;;;;5084671;28;20402;-88
2021/07/01 08:51:36;;;;;;;3.20;2.65;;;16.00;99.90;;;;;;5088600;28;20461;-87
2021/07/01 08:54:25;;;;;;;2.75;2.53;;;16.00;99.90;;;;;;5081668;28;20430;-87
2021/07/01 08:56:55;;;;;;;3.35;2.83;;;16.10;99.90;;;;;;5081293;28;20390;-87
2021/07/01 08:59:27;;;;;;;3.10;2.77;;;16.10;99.90;;;;;;5102232;28;20375;-88
2021/07/01 09:02:01;;;;;;;2.83;2.53;;;16.10;99.90;;;;;;5099578;28;20411;-90
2021/07/01 09:04:39;;;;;;;2.57;2.20;;;16.10;99.90;;;;;;5092908;28;20439;-89
2021/07/01 09:07:05;;;;;;;2.50;2.30;;;16.00;99.90;;;;;;5094577;28;20398;-88
2021/07/01 09:09:37;;;;;;;2.63;2.42;;;16.20;99.90;;;;;;5096078;28;20445;-88
2021/07/01 09:12:09;;;;;;;3.13;2.63;;;16.20;99.90;;;;;;5082686;28;20472;-90
2021/07/01 09:14:41;;;;;;;4.32;2.90;;;16.20;99.90;;;;;;5080611;28;20388;-88
2021/07/01 09:17:11;;;;;;;5.88;3.13;;;16.10;99.90;;;;;;5075413;28;20381;-89
2021/07/01 09:19:40;;;;;;;3.60;3.30;;;16.10;99.90;;;;;;5075551;28;20376;-88
2021/07/01 09:22:11;;;;;;;3.70;3.40;;;16.10;99.90;;;;;;5093956;28;20882;-87
2021/07/01 09:24:38;;;;;;;5.28;3.78;;;16.10;99.90;;;;;;5075134;28;20380;-89
2021/07/01 09:27:11;;;;;;;4.15;3.35;;;16.20;99.90;;;;;;5074453;28;20422;-88
2021/07/01 09:29:40;;;;;;;6.60;5.70;;;16.30;99.90;;;;;;5075013;28;20431;-90
2021/07/01 09:32:08;;;;;;;5.53;4.82;;;16.30;99.90;;;;;;5075034;28;20459;-88
2021/07/01 09:34:34;;;;;;;4.60;4.13;;;;;;;;;;5091366;28;20396;-88
2021/07/01 09:37:03;;;;;;;5.22;3.97;;;;;;;;;;5092498;28;20876;-90
2021/07/01 09:39:31;;;;;;;4.97;3.72;;;;;;;;;;5074620;28;20474;-90
2021/07/01 09:42:01;;;;;;;4.10;3.70;;;;;;;;;;5073967;28;20377;-89
2021/07/01 09:44:29;;;;;;;4.47;4.07;;;;;;;;;;5094370;28;20368;-89
2021/07/01 09:46:59;;;;;;;4.57;4.18;;;;;;;;;;5075332;28;20468;-89
2021/07/01 09:49:33;;;;;;;8.25;4.30;;;;;;;;;;5075023;28;20780;-86
2021/07/01 09:52:01;;;;;;;4.70;4.28;;;;;;;;;;5074678;28;20452;-87
2021/07/01 09:54:28;;;;;;;4.78;4.32;;;;;;;;;;5075561;28;20376;-89
2021/07/01 09:56:56;;;;;;;5.43;4.93;;;;;;;;;;5075594;28;20413;-89
2021/07/01 09:59:33;;;;;;;5.10;4.70;;;16.50;99.90;;;;;;5092845;28;20365;-87
2021/07/01 10:02:15;;;;;;;5.60;4.90;;;16.40;99.90;;;;;;5074738;28;20449;-87
2021/07/01 10:04:45;;;;;;;6.00;5.50;;;16.30;99.90;;;;;;5075082;28;20377;-88
2021/07/01 10:07:15;;;;;;;5.97;5.40;;;16.40;99.90;;;;;;5091929;28;20380;-87
2021/07/01 10:09:42;;;;;;;10.10;5.82;;;16.30;99.90;;;;;;5074625;28;20913;-88
2021/07/01 10:12:22;;;;;;;7.20;5.55;;;16.30;99.90;;;;;;5074790;28;20408;-88
2021/07/01 10:14:58;;;;;;;6.25;5.65;;;16.40;99.90;;;;;;5093240;28;20530;-89
2021/07/01 10:17:25;;;;;;;7.25;5.90;;;16.40;99.90;;;;;;5075493;28;20758;-87
2021/07/01 10:20:06;;;;;;;7.13;6.43;;;16.40;99.90;;;;;;5074949;28;20387;-88
2021/07/01 10:22:40;;;;;;;8.85;7.55;;;16.40;99.90;;;;;;5074848;28;20393;-87
2021/07/01 10:25:07;;;;;;;8.20;7.40;;;16.30;99.90;;;;;;5074518;28;20372;-89
2021/07/01 10:27:41;;;;;;;8.63;7.60;;;16.30;99.90;;;;;;5074609;28;20728;-88
2021/07/01 10:30:23;;;;;;;8.63;7.73;;;16.40;99.90;;;;;;5074086;28;20898;-87
2021/07/01 10:32:51;;;;;;;7.97;7.18;;;16.40;99.90;;;;;;5073862;28;20403;-89
2021/07/01 10:35:35;;;;;;;8.88;7.63;;;16.30;99.90;;;;;;5078967;28;20379;-90
2021/07/01 10:38:04;;;;;;;9.20;8.40;;;16.30;99.90;;;;;;5083692;28;20449;-88
2021/07/01 10:40:32;;;;;;;9.85;8.95;;;16.30;99.90;;;;;;5093735;28;20375;-86
2021/07/01 10:42:58;;;;;;;8.95;8.05;;;16.30;99.90;;;;;;5077131;28;20388;-87
2021/07/01 10:45:25;;;;;;;9.52;8.68;;;16.40;99.90;;;;;;5092430;28;20376;-88
2021/07/01 10:47:52;;;;;;;9.98;9.00;;;16.40;99.90;;;;;;5073418;28;20412;-89
2021/07/01 10:50:21;;;;;;;9.02;8.23;;;16.30;99.90;;;;;;5081292;28;20527;-90
2021/07/01 10:52:47;;;;;;;9.33;8.43;;;16.30;99.90;;;;;;5081205;28;21186;-88
2021/07/01 10:55:15;;;;;;;8.95;8.18;;;16.30;99.90;;;;;;5083188;28;20383;-90
2021/07/01 10:57:53;;;;;;;9.57;8.67;;;16.30;99.90;;;;;;5078890;28;20423;-88
2021/07/01 11:00:44;;;;;;;8.80;7.90;;;16.40;99.90;;;;;;5078214;28;20402;-90
2021/07/01 11:03:19;;;;;;;9.90;9.00;;;16.40;99.90;;;;;;5085219;28;20394;-89
2021/07/01 11:05:45;;;;;;;9.32;8.43;;;16.40;99.90;;;;;;5085351;28;20390;-87
2021/07/01 11:08:23;;;;;;;9.60;8.60;;;16.50;99.90;;;;;;5101429;28;20375;-87
2021/07/01 11:10:52;;;;;;;10.45;9.35;;;16.40;99.90;;;;;;5083300;28;20395;-88
2021/07/01 11:13:19;;;;;;;9.35;8.45;;;16.50;99.90;;;;;;5081718;28;20372;-88
2021/07/01 11:16:02;;;;;;;9.70;8.90;;;16.50;99.90;;;;;;5081132;28;20391;-87
2021/07/01 11:18:35;;;;;;;10.00;8.60;;;16.50;99.90;;;;;;5083167;28;20389;-88
2021/07/01 11:21:13;;;;;;;10.05;8.82;;;16.60;99.90;;;;;;5083496;28;20376;-86
2021/07/01 11:23:41;;;;;;;10.23;9.32;;;16.60;99.90;;;;;;5082513;28;20387;-88
2021/07/01 11:26:25;;;;;;;10.90;9.57;;;16.50;99.90;;;;;;5081644;28;20408;-88
2021/07/01 11:28:54;;;;;;;10.50;9.43;;;16.50;99.90;;;;;;5081619;28;20388;-88
2021/07/01 11:31:40;;;;;;;10.00;9.20;;;16.50;99.90;;;;;;5100889;28;20380;-87
2021/07/01 11:34:11;;;;;;;9.15;8.25;;;16.50;99.90;;;;;;5083651;28;20385;-89
2021/07/01 11:36:39;;;;;;;11.40;10.38;;;16.50;99.90;;;;;;5091708;28;20374;-89
2021/07/01 11:39:05;;;;;;;11.07;10.07;;;16.60;99.90;;;;;;5100767;28;20453;-88
2021/07/01 11:41:32;;;;;;;9.68;8.70;;;16.70;99.90;;;;;;5101167;28;20369;-89
2021/07/01 11:44:01;;;;;;;8.68;7.68;;;16.80;99.90;;;;;;5081703;28;20471;-90
2021/07/01 11:46:27;;;;;;;8.75;7.85;;;16.80;99.90;;;;;;5083118;28;20390;-88
2021/07/01 11:48:53;;;;;;;9.02;8.10;;;16.80;99.90;;;;;;5083435;28;20475;-91
2021/07/01 11:51:24;;;;;;;8.52;7.68;;;16.80;99.90;;;;;;5080456;28;20457;-88
2021/07/01 11:53:51;;;;;;;12.90;9.07;;;16.90;99.90;;;;;;5072572;28;20381;-88
2021/07/01 11:56:20;;;;;;;8.98;8.18;;;16.90;99.90;;;;;;5074610;28;20826;-87
2021/07/01 11:58:46;;;;;;;9.20;8.30;;;17.00;99.90;;;;;;5091156;28;20425;-90
2021/07/01 12:01:15;;;;;;;9.48;8.50;;;17.00;99.90;;;;;;5089027;28;20404;-89
2021/07/01 12:03:45;;;;;;;10.02;9.10;;;17.00;99.90;;;;;;5089696;28;20463;-91
2021/07/01 12:06:31;;;;;;;10.00;9.00;;;16.90;99.90;;;;;;5090625;28;20376;-90
2021/07/01 12:08:58;;;;;;;8.83;8.00;;;17.20;99.90;;;;;;5093365;28;20412;-90
2021/07/01 12:11:24;;;;;;;12.63;8.60;;;17.50;99.90;;;;;;5079726;28;20945;-87
2021/07/01 12:13:50;;;;;;;9.73;8.27;;;17.80;99.90;;;;;;5086501;28;20463;-90
2021/07/01 12:16:17;;;;;;;9.15;8.32;;;17.80;99.90;;;;;;5080251;28;20459;-88
2021/07/01 12:18:54;;;;;;;8.15;7.45;;;17.90;99.90;;;;;;5079801;28;20476;-88
2021/07/01 12:21:48;;;;;;;9.27;8.10;;;18.00;99.90;;;;;;5078213;28;20367;-90
2021/07/01 12:24:19;;;;;;;8.73;7.65;;;18.10;99.90;;;;;;5095059;28;20767;-91
2021/07/01 12:26:46;;;;;;;9.67;8.20;;;18.30;99.90;;;;;;5078414;28;20383;-89
2021/07/01 12:29:44;;;;;;;9.38;8.48;;;18.30;99.90;;;;;;5075601;28;20515;-89
2021/07/01 12:32:27;;;;;;;8.35;7.63;;;18.30;99.90;;;;;;5076104;28;20805;-88
2021/07/01 12:34:55;;;;;;;9.55;7.70;;;18.30;99.90;;;;;;5076016;28;20412;-89
2021/07/01 12:37:21;;;;;;;8.95;7.18;;;18.40;99.90;;;;;;5080538;28;20457;-91
2021/07/01 12:39:48;;;;;;;7.57;6.85;;;18.40;99.90;;;;;;5079820;28;20389;-88
2021/07/01 12:42:16;;;;;;;7.50;6.80;;;18.50;99.90;;;;;;5079677;28;20380;-89
2021/07/01 12:44:46;;;;;;;7.65;6.50;;;18.60;99.90;;;;;;5080107;28;20393;-89
2021/07/01 12:47:25;;;;;;;8.23;7.17;;;18.70;99.90;;;;;;5095787;28;20382;-90
2021/07/01 12:49:53;;;;;;;7.00;6.30;;;18.70;99.90;;;;;;5090259;28;20488;-89
2021/07/01 12:52:21;;;;;;;8.93;7.30;;;18.90;99.90;;;;;;5095844;28;20387;-91
2021/07/01 12:54:51;;;;;;;7.82;7.00;;;18.80;99.90;;;;;;5072783;28;20377;-90
2021/07/01 12:57:20;;;;;;;7.70;6.87;;;18.90;99.90;;;;;;5072949;28;20373;-93